createdAt,value
2019-05-22T00:01:10.276Z,87.40
2019-05-22T00:03:44.059Z,87.00
2019-05-22T00:06:15.407Z,86.70
2019-05-22T00:08:45.321Z,86.60
2019-05-22T00:11:17.664Z,86.20
2019-05-22T00:13:47.709Z,86.10
2019-05-22T00:16:17.975Z,86.20
2019-05-22T00:18:50.557Z,86.20
2019-05-22T00:21:21.005Z,86.20
2019-05-22T00:23:52.362Z,86.20
2019-05-22T00:26:22.407Z,86.50
2019-05-22T00:28:53.864Z,86.50
2019-05-22T00:31:25.530Z,86.60
2019-05-22T00:33:55.858Z,86.80
2019-05-22T00:36:26.010Z,86.20
2019-05-22T00:38:57.218Z,85.60
2019-05-22T00:41:28.708Z,85.30
2019-05-22T00:43:58.087Z,84.80
2019-05-22T00:46:28.484Z,84.40
2019-05-22T00:48:58.490Z,84.30
2019-05-22T00:51:35.315Z,84.50
2019-05-22T00:54:18.245Z,84.40
2019-05-22T00:56:53.161Z,84.20
2019-05-22T00:59:37.072Z,84.10
2019-05-22T01:02:08.090Z,83.90
2019-05-22T01:04:41.503Z,84.00
2019-05-22T01:07:18.943Z,83.70
2019-05-22T01:09:58.528Z,83.70
2019-05-22T01:12:33.940Z,83.80
2019-05-22T01:15:06.890Z,83.90
2019-05-22T01:17:37.086Z,84.00
2019-05-22T01:20:10.940Z,83.70
2019-05-22T01:22:42.291Z,84.10
2019-05-22T01:25:14.922Z,83.70
2019-05-22T01:27:46.491Z,84.50
2019-05-22T01:30:36.534Z,84.80
2019-05-22T01:33:11.029Z,84.90
2019-05-22T01:35:44.668Z,85.00
2019-05-22T01:38:14.645Z,85.90
2019-05-22T01:41:08.479Z,85.20
2019-05-22T01:43:39.974Z,85.20
2019-05-22T01:46:12.076Z,85.10
2019-05-22T01:48:45.606Z,86.10
2019-05-22T01:51:16.597Z,85.40
2019-05-22T01:53:46.642Z,85.60
2019-05-22T01:56:19.299Z,85.50
2019-05-22T01:58:50.320Z,85.30
2019-05-22T02:01:21.949Z,85.20
2019-05-22T02:03:53.241Z,85.10
2019-05-22T02:06:27.013Z,85.10
2019-05-22T02:09:08.779Z,85.20
2019-05-22T02:11:39.390Z,85.30
2019-05-22T02:14:15.038Z,85.10
2019-05-22T02:16:56.585Z,85.00
2019-05-22T02:19:20.699Z,84.80
2019-05-22T02:21:50.295Z,84.80
2019-05-22T02:24:19.816Z,84.90
2019-05-22T02:26:50.259Z,84.90
2019-05-22T02:29:21.585Z,84.90
2019-05-22T02:31:55.086Z,84.90
2019-05-22T02:34:22.730Z,84.90
2019-05-22T02:36:53.741Z,85.10
2019-05-22T02:39:26.081Z,85.10
2019-05-22T02:42:01.440Z,85.20
2019-05-22T02:44:31.460Z,85.30
2019-05-22T02:47:18.101Z,85.10
2019-05-22T02:49:32.796Z,85.10
2019-05-22T02:52:03.558Z,85.20
2019-05-22T02:54:36.271Z,85.30
2019-05-22T02:57:07.701Z,86.80
2019-05-22T02:59:37.461Z,85.80
2019-05-22T03:02:08.696Z,85.80
2019-05-22T03:05:01.274Z,85.80
2019-05-22T03:07:31.565Z,86.10
2019-05-22T03:10:03.417Z,86.30
2019-05-22T03:12:35.956Z,85.80
2019-05-22T03:15:13.061Z,86.30
2019-05-22T03:17:45.993Z,86.50
2019-05-22T03:20:23.628Z,86.90
2019-05-22T03:23:18.221Z,86.80
2019-05-22T03:25:47.862Z,86.90
2019-05-22T03:28:17.369Z,87.00
2019-05-22T03:30:47.465Z,87.00
2019-05-22T03:33:17.731Z,87.10
2019-05-22T03:35:50.864Z,87.10
2019-05-22T03:38:21.257Z,87.60
2019-05-22T03:40:53.834Z,86.60
2019-05-22T03:43:29.770Z,86.80
2019-05-22T03:46:05.396Z,86.60
2019-05-22T03:48:37.632Z,86.80
2019-05-22T03:51:14.233Z,86.60
2019-05-22T03:53:44.166Z,86.60
2019-05-22T03:56:15.161Z,86.70
2019-05-22T03:58:47.044Z,86.90
2019-05-22T04:01:18.482Z,87.00
2019-05-22T04:03:49.557Z,87.60
2019-05-22T04:06:20.797Z,87.10
2019-05-22T04:08:54.056Z,86.90
2019-05-22T04:11:27.036Z,86.70
2019-05-22T04:13:57.273Z,86.70
2019-05-22T04:16:29.306Z,86.60
2019-05-22T04:18:59.851Z,86.20
2019-05-22T04:21:31.348Z,86.50
2019-05-22T04:24:01.489Z,85.60
2019-05-22T04:26:32.733Z,85.70
2019-05-22T04:29:04.098Z,86.00
2019-05-22T04:31:48.612Z,86.10
2019-05-22T04:34:20.030Z,86.30
2019-05-22T04:36:51.559Z,86.00
2019-05-22T04:39:25.466Z,86.40
2019-05-22T04:41:57.136Z,86.70
2019-05-22T04:44:28.178Z,86.10
2019-05-22T04:46:57.711Z,85.90
2019-05-22T04:49:28.036Z,86.10
2019-05-22T04:51:57.959Z,85.90
2019-05-22T04:54:27.662Z,85.40
2019-05-22T04:56:58.094Z,85.40
2019-05-22T04:59:27.554Z,85.40
2019-05-22T05:01:57.705Z,85.60
2019-05-22T05:04:28.431Z,85.60
2019-05-22T05:06:58.450Z,85.60
2019-05-22T05:09:28.097Z,85.90
2019-05-22T05:11:58.197Z,86.00
2019-05-22T05:14:27.562Z,86.60
2019-05-22T05:16:57.107Z,86.90
2019-05-22T05:19:27.327Z,86.50
2019-05-22T05:21:56.699Z,85.90
2019-05-22T05:24:26.069Z,85.70
2019-05-22T05:26:56.753Z,85.90
2019-05-22T05:29:29.820Z,85.90
2019-05-22T05:32:00.222Z,85.90
2019-05-22T05:34:48.931Z,85.70
2019-05-22T05:37:20.407Z,86.10
2019-05-22T05:40:00.143Z,86.10
2019-05-22T05:42:29.665Z,86.30
2019-05-22T05:44:59.030Z,86.30
2019-05-22T05:47:28.858Z,86.40
2019-05-22T05:49:58.912Z,86.20
2019-05-22T05:52:30.928Z,86.30
2019-05-22T05:55:00.758Z,86.50
2019-05-22T05:57:40.952Z,86.40
2019-05-22T06:00:17.234Z,86.60
2019-05-22T06:02:56.212Z,86.20
2019-05-22T06:05:18.333Z,86.60
2019-05-22T06:07:47.989Z,85.90
2019-05-22T06:10:36.639Z,86.00
2019-05-22T06:13:08.181Z,86.20
2019-05-22T06:15:54.514Z,86.10
2019-05-22T06:21:12.765Z,86.10
2019-05-22T06:24:20.921Z,85.50
2019-05-22T06:26:58.083Z,85.10
2019-05-22T06:29:32.978Z,85.60
2019-05-22T06:32:08.374Z,85.30
2019-05-22T06:34:37.885Z,85.30
2019-05-22T06:37:30.686Z,85.60
2019-05-22T06:40:01.495Z,85.90
2019-05-22T06:42:31.680Z,86.00
2019-05-22T06:45:01.076Z,85.80
2019-05-22T06:47:30.599Z,85.90
2019-05-22T06:50:01.405Z,85.80
2019-05-22T06:52:31.669Z,85.90
2019-05-22T06:55:01.041Z,85.90
2019-05-22T06:57:32.162Z,86.20
2019-05-22T07:00:14.542Z,85.70
2019-05-22T07:02:35.452Z,85.70
2019-05-22T07:05:06.453Z,85.50
2019-05-22T07:07:36.393Z,85.70
2019-05-22T07:10:08.436Z,86.00
2019-05-22T07:12:39.243Z,85.90
2019-05-22T07:15:21.443Z,85.60
2019-05-22T07:17:52.606Z,85.30
2019-05-22T07:20:22.341Z,85.00
2019-05-22T07:22:53.380Z,84.90
2019-05-22T07:25:24.869Z,84.90
2019-05-22T07:27:54.413Z,84.60
2019-05-22T07:30:23.938Z,84.60
2019-05-22T07:32:53.920Z,84.40
2019-05-22T07:35:24.692Z,84.00
2019-05-22T07:37:56.910Z,83.70
2019-05-22T07:40:26.709Z,83.80
2019-05-22T07:42:56.776Z,83.70
2019-05-22T07:45:29.402Z,83.70
2019-05-22T07:48:00.678Z,83.80
2019-05-22T07:50:32.729Z,83.70
2019-05-22T07:53:08.108Z,83.90
2019-05-22T07:55:37.718Z,83.90
2019-05-22T07:58:16.656Z,83.70
2019-05-22T08:00:51.185Z,83.70
2019-05-22T08:03:23.161Z,83.30
2019-05-22T08:05:55.994Z,83.10
2019-05-22T08:08:27.743Z,82.50
2019-05-22T08:10:59.280Z,82.90
2019-05-22T08:13:30.987Z,83.10
2019-05-22T08:16:00.730Z,82.70
2019-05-22T08:18:32.307Z,82.80
2019-05-22T08:21:01.825Z,82.50
2019-05-22T08:23:31.446Z,82.40
2019-05-22T08:26:02.044Z,81.50
2019-05-22T08:28:33.159Z,81.20
2019-05-22T08:31:05.411Z,81.60
2019-05-22T08:33:36.536Z,81.70
2019-05-22T08:36:08.021Z,81.70
2019-05-22T08:38:39.095Z,80.90
2019-05-22T08:41:11.130Z,81.00
2019-05-22T08:44:11.595Z,81.10
2019-05-22T08:46:14.114Z,81.40
2019-05-22T08:48:47.954Z,81.40
2019-05-22T08:51:17.188Z,81.20
2019-05-22T08:53:48.640Z,81.20
2019-05-22T08:56:20.501Z,81.30
2019-05-22T08:58:51.314Z,81.50
2019-05-22T09:01:21.318Z,81.90
2019-05-22T09:03:51.080Z,82.00
2019-05-22T09:06:20.688Z,81.60
2019-05-22T09:08:50.075Z,81.30
2019-05-22T09:11:20.077Z,81.20
2019-05-22T09:13:49.697Z,80.90
2019-05-22T09:16:20.138Z,80.70
2019-05-22T09:18:50.637Z,80.60
2019-05-22T09:21:20.817Z,80.40
2019-05-22T09:23:50.835Z,80.40
2019-05-22T09:26:24.916Z,80.20
2019-05-22T09:28:53.758Z,80.10
2019-05-22T09:31:23.129Z,80.10
2019-05-22T09:33:53.442Z,79.80
2019-05-22T09:36:22.802Z,79.80
2019-05-22T09:38:53.014Z,80.00
2019-05-22T09:41:22.524Z,80.60
2019-05-22T09:43:52.013Z,80.50
2019-05-22T09:46:24.071Z,81.00
2019-05-22T09:48:54.208Z,82.00
2019-05-22T09:51:24.190Z,80.60
2019-05-22T09:53:53.789Z,80.50
2019-05-22T09:56:24.234Z,80.20
2019-05-22T09:58:53.960Z,79.60
2019-05-22T10:01:23.137Z,79.60
2019-05-22T10:03:52.850Z,79.80
2019-05-22T10:06:22.221Z,79.80
2019-05-22T10:08:51.667Z,79.80
2019-05-22T10:11:21.709Z,79.20
2019-05-22T10:13:51.616Z,79.00
2019-05-22T10:16:21.008Z,78.90
2019-05-22T10:18:53.075Z,78.70
2019-05-22T10:21:31.379Z,78.90
2019-05-22T10:24:03.762Z,79.20
2019-05-22T10:26:33.209Z,78.90
2019-05-22T10:29:02.650Z,78.70
2019-05-22T10:31:32.277Z,78.40
2019-05-22T10:34:01.650Z,78.50
2019-05-22T10:36:31.457Z,79.00
2019-05-22T10:39:00.881Z,78.90
2019-05-22T10:41:30.300Z,78.70
2019-05-22T10:43:59.933Z,78.60
2019-05-22T10:46:29.682Z,78.80
2019-05-22T10:48:59.591Z,78.40
2019-05-22T10:51:29.604Z,78.50
2019-05-22T10:54:00.137Z,77.90
2019-05-22T10:56:30.409Z,77.40
2019-05-22T10:59:01.638Z,77.60
2019-05-22T11:01:31.706Z,77.50
2019-05-22T11:04:01.803Z,77.80
2019-05-22T11:06:31.548Z,78.30
2019-05-22T11:09:01.777Z,78.60
2019-05-22T11:11:32.184Z,78.60
2019-05-22T11:14:02.311Z,78.60
2019-05-22T11:16:32.327Z,79.20
2019-05-22T11:19:02.684Z,78.90
2019-05-22T11:21:33.500Z,78.90
2019-05-22T11:24:03.278Z,78.60
2019-05-22T11:26:32.710Z,78.50
2019-05-22T11:29:02.718Z,78.70
2019-05-22T11:31:32.472Z,78.90
2019-05-22T11:34:01.914Z,78.90
2019-05-22T11:36:31.961Z,78.60
2019-05-22T11:39:01.348Z,78.20
2019-05-22T11:41:30.793Z,78.40
2019-05-22T11:44:00.453Z,78.30
2019-05-22T11:46:30.038Z,78.30
2019-05-22T11:49:00.690Z,78.60
2019-05-22T11:51:30.074Z,78.50
2019-05-22T11:54:09.069Z,78.60
2019-05-22T11:56:31.743Z,78.40
2019-05-22T11:59:01.120Z,78.50
2019-05-22T12:01:30.511Z,78.40
2019-05-22T12:04:00.822Z,78.40
2019-05-22T12:06:31.637Z,78.60
2019-05-22T12:09:01.543Z,78.50
2019-05-22T12:11:31.560Z,78.50
2019-05-22T12:14:01.373Z,79.10
2019-05-22T12:16:31.342Z,78.60
2019-05-22T12:19:01.154Z,79.10
2019-05-22T12:21:30.917Z,79.20
2019-05-22T12:24:00.593Z,79.10
2019-05-22T12:26:30.053Z,79.30
2019-05-22T12:28:59.977Z,79.20
2019-05-22T12:31:30.264Z,79.30
2019-05-22T12:34:00.873Z,79.40
2019-05-22T12:36:30.694Z,79.50
2019-05-22T12:39:01.005Z,79.60
2019-05-22T12:41:30.923Z,79.50
2019-05-22T12:44:00.312Z,79.30
2019-05-22T12:46:31.391Z,79.10
2019-05-22T12:49:01.576Z,79.10
2019-05-22T12:51:32.844Z,79.20
2019-05-22T12:54:02.983Z,79.10
2019-05-22T12:56:32.651Z,79.00
2019-05-22T12:59:03.716Z,79.10
2019-05-22T13:01:34.528Z,79.30
2019-05-22T13:04:06.917Z,79.20
2019-05-22T13:06:36.871Z,78.80
2019-05-22T13:09:10.778Z,79.10
2019-05-22T13:11:42.556Z,79.50
2019-05-22T13:14:13.471Z,79.50
2019-05-22T13:16:48.372Z,80.00
2019-05-22T13:19:15.945Z,79.90
2019-05-22T13:21:48.067Z,79.30
2019-05-22T13:24:20.555Z,79.50
2019-05-22T13:26:52.253Z,79.70
2019-05-22T13:29:22.756Z,80.00
2019-05-22T13:31:54.257Z,80.50
2019-05-22T13:34:26.815Z,81.00
2019-05-22T13:36:57.930Z,80.80
2019-05-22T13:39:27.325Z,80.60
2019-05-22T13:41:57.079Z,80.70
2019-05-22T13:44:26.621Z,80.80
2019-05-22T13:46:57.226Z,81.00
2019-05-22T13:49:28.442Z,81.30
2019-05-22T13:51:57.826Z,81.60
2019-05-22T13:54:27.353Z,81.30
2019-05-22T13:56:57.740Z,81.50
2019-05-22T13:59:29.446Z,81.80
2019-05-22T14:01:59.773Z,83.00
2019-05-22T14:04:29.218Z,81.70
2019-05-22T14:06:59.759Z,81.50
2019-05-22T14:09:30.585Z,81.20
2019-05-22T14:12:00.030Z,80.80
2019-05-22T14:14:29.392Z,80.60
2019-05-22T14:16:58.861Z,80.40
2019-05-22T14:19:28.504Z,80.60
2019-05-22T14:21:57.960Z,81.00
2019-05-22T14:24:27.639Z,80.80
2019-05-22T14:26:57.083Z,80.70
2019-05-22T14:29:26.543Z,81.00
2019-05-22T14:31:56.384Z,81.30
2019-05-22T14:34:26.956Z,81.30
2019-05-22T14:36:57.566Z,81.10
2019-05-22T14:39:27.430Z,81.30
2019-05-22T14:41:57.915Z,81.20
2019-05-22T14:44:27.294Z,81.00
2019-05-22T14:47:10.652Z,80.70
2019-05-22T14:49:28.805Z,80.60
2019-05-22T14:51:58.184Z,80.50
2019-05-22T14:54:28.599Z,80.30
2019-05-22T14:56:59.330Z,80.30
2019-05-22T14:59:29.337Z,80.20
2019-05-22T15:01:59.676Z,79.90
2019-05-22T15:04:31.453Z,80.00
2019-05-22T15:07:00.843Z,80.30
2019-05-22T15:09:30.042Z,80.90
2019-05-22T15:11:59.503Z,80.00
2019-05-22T15:14:29.816Z,79.90
2019-05-22T15:17:00.703Z,79.70
2019-05-22T15:19:30.210Z,80.00
2019-05-22T15:21:59.951Z,80.00
2019-05-22T15:24:30.306Z,80.50
2019-05-22T15:27:00.700Z,79.80
2019-05-22T15:29:30.318Z,79.80
2019-05-22T15:31:59.772Z,79.50
2019-05-22T15:34:30.542Z,79.50
2019-05-22T15:37:00.591Z,79.50
2019-05-22T15:39:32.704Z,79.20
2019-05-22T15:42:05.419Z,79.00
2019-05-22T15:44:35.668Z,78.90
2019-05-22T15:47:05.775Z,78.90
2019-05-22T15:49:36.929Z,78.70
2019-05-22T15:52:11.397Z,78.70
2019-05-22T15:54:42.225Z,78.40
2019-05-22T15:57:12.833Z,78.30
2019-05-22T15:59:44.587Z,78.10
2019-05-22T16:02:16.393Z,78.00
2019-05-22T16:04:47.773Z,77.40
2019-05-22T16:07:18.685Z,77.50
2019-05-22T16:09:51.221Z,77.30
2019-05-22T16:12:21.038Z,77.50
2019-05-22T16:14:52.463Z,77.40
2019-05-22T16:17:23.298Z,77.30
2019-05-22T16:19:54.578Z,77.20
2019-05-22T16:22:25.465Z,77.20
2019-05-22T16:24:55.064Z,77.10
2019-05-22T16:27:26.257Z,76.80
2019-05-22T16:29:56.362Z,77.20
2019-05-22T16:32:29.193Z,77.10
2019-05-22T16:34:59.338Z,77.10
2019-05-22T16:37:29.565Z,77.00
2019-05-22T16:39:59.558Z,77.10
2019-05-22T16:42:33.418Z,77.10
2019-05-22T16:45:03.405Z,76.90
2019-05-22T16:47:33.642Z,76.90
2019-05-22T16:50:04.440Z,76.50
2019-05-22T16:52:34.150Z,76.40
2019-05-22T16:55:05.169Z,76.10
2019-05-22T16:57:35.086Z,76.20
2019-05-22T17:00:07.179Z,75.90
2019-05-22T17:02:40.815Z,75.50
2019-05-22T17:05:13.796Z,75.40
2019-05-22T17:07:44.850Z,75.00
2019-05-22T17:10:18.817Z,74.90
2019-05-22T17:12:49.465Z,75.10
2019-05-22T17:15:20.419Z,75.30
2019-05-22T17:17:50.093Z,75.50
2019-05-22T17:20:28.807Z,75.50
2019-05-22T17:22:58.983Z,75.20
2019-05-22T17:25:30.244Z,74.90
2019-05-22T17:27:59.748Z,74.80
2019-05-22T17:30:31.344Z,74.90
2019-05-22T17:33:00.954Z,74.90
2019-05-22T17:35:31.742Z,74.90
2019-05-22T17:38:01.195Z,75.00
2019-05-22T17:40:31.892Z,74.80
2019-05-22T17:43:03.732Z,74.80
2019-05-22T17:45:34.030Z,74.80
2019-05-22T17:48:04.824Z,74.90
2019-05-22T17:50:35.836Z,74.80
2019-05-22T17:53:06.702Z,74.90
2019-05-22T17:55:38.748Z,74.90
2019-05-22T17:58:08.959Z,75.00
2019-05-22T18:00:40.464Z,74.90
2019-05-22T18:03:10.977Z,74.80
2019-05-22T18:05:41.182Z,74.90
2019-05-22T18:08:11.577Z,74.90
2019-05-22T18:10:44.220Z,74.80
2019-05-22T18:13:15.229Z,74.90
2019-05-22T18:15:46.095Z,74.80
2019-05-22T18:18:16.978Z,75.00
2019-05-22T18:20:48.662Z,74.90
2019-05-22T18:23:18.931Z,75.00
2019-05-22T18:25:48.271Z,74.90
2019-05-22T18:28:19.379Z,74.70
2019-05-22T18:30:50.188Z,74.90
2019-05-22T18:33:19.931Z,74.80
2019-05-22T18:35:49.976Z,74.60
2019-05-22T18:38:19.353Z,74.90
2019-05-22T18:40:48.724Z,74.60
2019-05-22T18:43:18.976Z,74.40
2019-05-22T18:45:48.979Z,74.20
2019-05-22T18:48:18.351Z,74.00
2019-05-22T18:50:47.790Z,73.90
2019-05-22T18:53:17.891Z,73.60
2019-05-22T18:55:47.276Z,73.40
2019-05-22T18:58:16.709Z,73.60
2019-05-22T19:00:46.364Z,73.70
2019-05-22T19:03:16.305Z,73.40
2019-05-22T19:05:45.747Z,73.20
2019-05-22T19:08:18.081Z,73.20
2019-05-22T19:10:48.091Z,74.30
2019-05-22T19:13:17.447Z,73.00
2019-05-22T19:15:47.025Z,72.50
2019-05-22T19:18:16.691Z,72.40
2019-05-22T19:20:46.305Z,72.10
2019-05-22T19:23:16.880Z,72.40
2019-05-22T19:25:46.252Z,72.00
2019-05-22T19:28:15.893Z,71.50
2019-05-22T19:30:45.341Z,71.30
2019-05-22T19:33:15.209Z,71.00
2019-05-22T19:35:44.877Z,70.90
2019-05-22T19:38:14.536Z,70.80
2019-05-22T19:40:43.897Z,70.70
2019-05-22T19:43:13.633Z,70.40
2019-05-22T19:45:43.094Z,70.10
2019-05-22T19:48:13.026Z,70.20
2019-05-22T19:50:42.395Z,70.00
2019-05-22T19:53:18.894Z,69.90
2019-05-22T19:55:45.724Z,69.60
2019-05-22T19:58:16.033Z,69.80
2019-05-22T20:00:46.531Z,69.50
2019-05-22T20:03:16.467Z,69.30
2019-05-22T20:05:45.881Z,69.20
2019-05-22T20:08:15.329Z,69.30
2019-05-22T20:10:45.114Z,69.00
2019-05-22T20:13:16.023Z,69.10
2019-05-22T20:15:45.954Z,68.90
2019-05-22T20:18:15.435Z,68.70
2019-05-22T20:20:45.212Z,68.50
2019-05-22T20:23:15.238Z,68.60
2019-05-22T20:25:45.386Z,68.10
2019-05-22T20:28:15.902Z,68.00
2019-05-22T20:30:45.821Z,67.90
2019-05-22T20:33:15.458Z,68.30
2019-05-22T20:35:45.105Z,68.00
2019-05-22T20:38:14.779Z,67.40
2019-05-22T20:40:44.528Z,67.60
2019-05-22T20:43:14.800Z,67.50
2019-05-22T20:45:45.845Z,66.90
2019-05-22T20:48:23.526Z,66.80
2019-05-22T20:50:55.875Z,66.80
2019-05-22T20:53:27.286Z,66.90
2019-05-22T20:55:56.940Z,67.00
2019-05-22T20:58:28.738Z,67.20
2019-05-22T21:00:58.287Z,67.10
2019-05-22T21:03:28.133Z,67.10
2019-05-22T21:05:58.494Z,67.20
2019-05-22T21:08:30.847Z,66.80
2019-05-22T21:11:01.444Z,66.80
2019-05-22T21:13:32.184Z,66.90
2019-05-22T21:16:03.190Z,67.00
2019-05-22T21:18:37.286Z,67.10
2019-05-22T21:21:09.621Z,67.00
2019-05-22T21:23:40.404Z,67.10
2019-05-22T21:26:11.024Z,66.90
2019-05-22T21:28:41.462Z,67.20
2019-05-22T21:31:13.019Z,67.20
2019-05-22T21:33:42.829Z,67.20
2019-05-22T21:36:14.060Z,67.00
2019-05-22T21:38:44.003Z,67.30
2019-05-22T21:41:14.422Z,67.10
2019-05-22T21:43:43.940Z,67.00
2019-05-22T21:46:14.963Z,66.90
2019-05-22T21:48:44.926Z,67.20
2019-05-22T21:51:14.684Z,67.30
2019-05-22T21:53:44.627Z,67.50
2019-05-22T21:56:14.180Z,67.60
2019-05-22T21:58:44.782Z,68.00
2019-05-22T22:01:30.772Z,67.30
2019-05-22T22:04:05.381Z,67.40
2019-05-22T22:06:35.018Z,67.50
2019-05-22T22:09:07.462Z,67.50
2019-05-22T22:11:37.790Z,68.20
2019-05-22T22:14:07.867Z,67.50
2019-05-22T22:16:39.348Z,67.50
2019-05-22T22:19:11.190Z,68.30
2019-05-22T22:21:40.623Z,67.80
2019-05-22T22:24:11.836Z,67.60
2019-05-22T22:26:42.031Z,67.60
2019-05-22T22:29:12.343Z,68.00
2019-05-22T22:31:42.868Z,67.80
2019-05-22T22:34:23.708Z,68.00
2019-05-22T22:36:54.138Z,68.00
2019-05-22T22:39:24.628Z,68.00
2019-05-22T22:41:57.987Z,67.80
2019-05-22T22:44:28.771Z,67.80
2019-05-22T22:47:02.602Z,68.10
2019-05-22T22:49:32.673Z,68.30
2019-05-22T22:52:02.160Z,68.20
2019-05-22T22:54:31.995Z,68.30
2019-05-22T22:57:02.292Z,68.40
2019-05-22T22:59:32.227Z,68.50
2019-05-22T23:02:04.332Z,68.30
2019-05-22T23:04:34.498Z,68.60
2019-05-22T23:07:05.815Z,68.60
2019-05-22T23:09:37.997Z,68.60
2019-05-22T23:12:09.748Z,68.50
2019-05-22T23:14:44.676Z,68.60
2019-05-22T23:17:14.354Z,68.90
2019-05-22T23:19:43.278Z,68.90
2019-05-22T23:22:12.907Z,69.20
2019-05-22T23:24:43.796Z,69.20
2019-05-22T23:27:13.454Z,69.20
2019-05-22T23:29:42.988Z,69.30
2019-05-22T23:32:14.539Z,69.30
2019-05-22T23:34:45.152Z,69.20
2019-05-22T23:37:15.907Z,69.20
2019-05-22T23:39:47.701Z,69.20
2019-05-22T23:42:22.583Z,69.50
2019-05-22T23:44:54.911Z,69.50
2019-05-22T23:47:26.088Z,69.30
2019-05-22T23:49:57.847Z,69.50
2019-05-22T23:52:27.785Z,69.40
2019-05-22T23:54:57.788Z,69.40
2019-05-22T23:57:28.216Z,69.30
2019-05-22T23:59:58.693Z,69.20
